createdAt,value
2023-05-06T00:03:12.301Z,100921.63
2023-05-06T00:08:16.571Z,100919.33
2023-05-06T00:13:20.236Z,100917.27
2023-05-06T00:18:24.029Z,100912.55
2023-05-06T00:23:27.523Z,100916.23
2023-05-06T00:28:31.047Z,100922.87
2023-05-06T00:33:34.670Z,100928.68
2023-05-06T00:38:38.075Z,100927.42
2023-05-06T00:43:41.731Z,100926.04
2023-05-06T00:48:45.722Z,100931.45
2023-05-06T00:53:49.673Z,100934.73
2023-05-06T00:58:54.566Z,100936.93
2023-05-06T01:03:58.947Z,100943.10
2023-05-06T01:09:21.410Z,100944.84
2023-05-06T01:14:47.340Z,100945.78
2023-05-06T01:19:55.663Z,100949.98
2023-05-06T01:24:59.097Z,100950.10
2023-05-06T01:30:03.004Z,100953.54
2023-05-06T01:35:26.696Z,100954.19
2023-05-06T01:40:33.548Z,100957.70
2023-05-06T01:45:39.579Z,100962.16
2023-05-06T01:50:43.811Z,100956.33
2023-05-06T01:55:48.435Z,100957.59
2023-05-06T02:00:51.738Z,100952.77
2023-05-06T02:05:55.900Z,100959.39
2023-05-06T02:10:59.701Z,100957.70
2023-05-06T02:16:03.455Z,100963.24
2023-05-06T02:21:07.034Z,100962.95
2023-05-06T02:26:10.969Z,100963.12
2023-05-06T02:31:18.070Z,100969.97
2023-05-06T02:36:21.483Z,100966.25
2023-05-06T02:41:25.097Z,100967.98
2023-05-06T02:46:28.709Z,100963.61
2023-05-06T02:51:32.121Z,100961.23
2023-05-06T02:56:35.660Z,100957.33
2023-05-06T03:01:39.096Z,100951.17
2023-05-06T03:06:42.665Z,100947.42
2023-05-06T03:11:46.591Z,100949.11
2023-05-06T03:16:50.058Z,100953.11
2023-05-06T03:21:53.721Z,100943.04
2023-05-06T03:26:58.760Z,100942.20
2023-05-06T03:32:06.011Z,100943.67
2023-05-06T03:37:09.389Z,100938.86
2023-05-06T03:42:12.908Z,100932.63
2023-05-06T03:47:17.554Z,100938.23
2023-05-06T03:52:21.371Z,100944.77
2023-05-06T03:57:24.681Z,100945.12
2023-05-06T04:02:29.653Z,100952.52
2023-05-06T04:07:33.449Z,100955.07
2023-05-06T04:12:36.905Z,100956.52
2023-05-06T04:17:40.522Z,100960.86
2023-05-06T04:22:43.998Z,100957.86
2023-05-06T04:27:47.830Z,100955.21
2023-05-06T04:32:51.370Z,100944.42
2023-05-06T04:37:54.856Z,100938.56
2023-05-06T04:42:58.371Z,100937.84
2023-05-06T04:48:01.993Z,100939.83
2023-05-06T04:53:05.725Z,100942.58
2023-05-06T04:58:09.480Z,100939.77
2023-05-06T05:03:13.029Z,100936.48
2023-05-06T05:08:16.780Z,100935.77
2023-05-06T05:13:21.341Z,100932.04
2023-05-06T05:18:24.732Z,100926.87
2023-05-06T05:23:28.238Z,100926.56
2023-05-06T05:28:32.370Z,100925.71
2023-05-06T05:33:35.812Z,100926.17
2023-05-06T05:38:39.601Z,100922.23
2023-05-06T05:43:43.321Z,100916.32
2023-05-06T05:48:46.665Z,100916.46
2023-05-06T05:53:51.994Z,100915.49
2023-05-06T05:58:55.619Z,100907.20
2023-05-06T06:04:00.378Z,100899.95
2023-05-06T06:09:04.585Z,100900.43
2023-05-06T06:14:07.901Z,100901.48
2023-05-06T06:19:11.929Z,100901.52
2023-05-06T06:24:15.341Z,100895.17
2023-05-06T06:29:18.806Z,100898.04
2023-05-06T06:34:22.675Z,100896.42
2023-05-06T06:39:26.089Z,100894.88
2023-05-06T06:44:29.507Z,100897.53
2023-05-06T06:49:33.022Z,100903.16
2023-05-06T06:54:39.056Z,100898.71
2023-05-06T06:59:42.707Z,100900.05
2023-05-06T07:04:46.157Z,100893.97
2023-05-06T07:09:49.740Z,100895.37
2023-05-06T07:14:53.165Z,100895.81
2023-05-06T07:19:56.614Z,100889.81
2023-05-06T07:25:00.038Z,100886.42
2023-05-06T07:30:04.212Z,100881.77
2023-05-06T07:35:08.954Z,100881.56
2023-05-06T07:40:14.540Z,100881.25
2023-05-06T07:45:19.823Z,100872.50
2023-05-06T07:50:23.180Z,100877.42
2023-05-06T07:55:26.701Z,100876.17
2023-05-06T08:00:30.200Z,100875.94
2023-05-06T08:05:33.635Z,100874.42
2023-05-06T08:10:39.195Z,100877.34
2023-05-06T08:15:42.928Z,100879.71
2023-05-06T08:20:48.624Z,100872.14
2023-05-06T08:25:52.136Z,100873.86
2023-05-06T08:30:55.820Z,100873.41
2023-05-06T08:35:59.338Z,100865.13
2023-05-06T08:41:08.294Z,100857.09
2023-05-06T08:46:12.136Z,100849.83
2023-05-06T08:51:16.065Z,100848.29
2023-05-06T08:56:20.463Z,100852.38
2023-05-06T09:01:25.153Z,100847.48
2023-05-06T09:06:28.619Z,100842.95
2023-05-06T09:11:32.150Z,100838.33
2023-05-06T09:16:36.090Z,100834.83
2023-05-06T09:21:40.816Z,100829.45
2023-05-06T09:26:46.302Z,100829.34
2023-05-06T09:31:55.219Z,100824.85
2023-05-06T09:37:01.390Z,100818.71
2023-05-06T09:42:05.214Z,100818.11
2023-05-06T09:47:08.637Z,100812.19
2023-05-06T09:52:12.452Z,100812.06
2023-05-06T09:57:18.906Z,100815.76
2023-05-06T10:02:23.883Z,100810.07
2023-05-06T10:07:29.141Z,100804.23
2023-05-06T10:12:32.670Z,100805.67
2023-05-06T10:17:38.416Z,100805.95
2023-05-06T10:22:49.526Z,100799.91
2023-05-06T10:27:53.469Z,100803.84
2023-05-06T10:32:59.852Z,100798.21
2023-05-06T10:38:05.527Z,100791.29
2023-05-06T10:43:25.634Z,100794.14
2023-05-06T10:48:30.238Z,100784.95
2023-05-06T10:53:55.974Z,100783.23
2023-05-06T10:59:06.055Z,100778.95
2023-05-06T11:04:14.126Z,100771.67
2023-05-06T11:09:18.601Z,100771.38
2023-05-06T11:14:27.549Z,100761.46
2023-05-06T11:19:33.993Z,100769.19
2023-05-06T11:24:44.728Z,100769.75
2023-05-06T11:29:48.160Z,100766.06
2023-05-06T11:34:55.327Z,100760.46
2023-05-06T11:39:58.738Z,100760.60
2023-05-06T11:45:02.640Z,100754.39
2023-05-06T11:50:07.874Z,100755.86
2023-05-06T11:55:12.292Z,100753.94
2023-05-06T12:00:16.628Z,100753.55
2023-05-06T12:05:24.104Z,100756.58
2023-05-06T12:10:27.506Z,100753.67
2023-05-06T12:15:31.174Z,100752.64
2023-05-06T12:20:35.162Z,100752.02
2023-05-06T12:25:39.613Z,100750.69
2023-05-06T12:30:44.381Z,100748.38
2023-05-06T12:35:47.661Z,100745.80
2023-05-06T12:40:55.377Z,100738.11
2023-05-06T12:46:09.362Z,100734.68
2023-05-06T12:51:19.712Z,100736.00
2023-05-06T12:56:23.423Z,100734.90
2023-05-06T13:01:26.661Z,100734.92
2023-05-06T13:06:30.187Z,100735.63
2023-05-06T13:11:33.404Z,100730.64
2023-05-06T13:16:37.501Z,100729.87
2023-05-06T13:21:41.417Z,100725.00
2023-05-06T13:26:44.919Z,100722.09
2023-05-06T13:31:48.261Z,100720.23
2023-05-06T13:36:52.361Z,100721.33
2023-05-06T13:41:56.201Z,100717.42
2023-05-06T13:46:59.341Z,100711.27
2023-05-06T13:52:04.008Z,100706.06
2023-05-06T13:57:08.267Z,100710.62
2023-05-06T14:02:11.958Z,100712.81
2023-05-06T14:07:15.609Z,100712.49
2023-05-06T14:12:19.128Z,100710.06
2023-05-06T14:17:22.649Z,100705.53
2023-05-06T14:22:26.263Z,100704.34
2023-05-06T14:27:29.777Z,100702.66
2023-05-06T14:32:33.448Z,100696.77
2023-05-06T14:37:36.910Z,100692.69
2023-05-06T14:42:40.635Z,100690.63
2023-05-06T14:47:44.435Z,100693.21
2023-05-06T14:52:48.424Z,100689.58
2023-05-06T14:57:51.746Z,100688.86
2023-05-06T15:02:55.291Z,100681.10
2023-05-06T15:07:58.673Z,100684.50
2023-05-06T15:13:02.299Z,100687.87
2023-05-06T15:18:05.840Z,100690.64
2023-05-06T15:23:09.364Z,100689.51
2023-05-06T15:28:12.778Z,100687.63
2023-05-06T15:33:16.294Z,100691.98
2023-05-06T15:38:19.708Z,100693.86
2023-05-06T15:43:24.269Z,100688.88
2023-05-06T15:48:29.532Z,100689.61
2023-05-06T15:53:32.894Z,100685.84
2023-05-06T15:58:38.325Z,100684.33
2023-05-06T16:03:41.997Z,100686.68
2023-05-06T16:08:46.020Z,100686.55
2023-05-06T16:13:49.433Z,100688.41
2023-05-06T16:18:52.750Z,100690.75
2023-05-06T16:23:56.261Z,100687.23
2023-05-06T16:29:01.720Z,100694.54
2023-05-06T16:34:05.102Z,100694.46
2023-05-06T16:39:08.872Z,100697.08
2023-05-06T16:44:12.369Z,100694.09
2023-05-06T16:49:15.791Z,100693.20
2023-05-06T16:54:19.725Z,100689.52
2023-05-06T16:59:23.961Z,100689.48
2023-05-06T17:04:27.259Z,100689.96
2023-05-06T17:09:32.395Z,100687.38
2023-05-06T17:14:36.128Z,100687.63
2023-05-06T17:19:41.181Z,100691.53
2023-05-06T17:24:44.489Z,100690.83
2023-05-06T17:29:48.208Z,100688.02
2023-05-06T17:34:51.632Z,100690.16
2023-05-06T17:41:04.593Z,100692.57
2023-05-06T17:46:09.593Z,100690.77
2023-05-06T17:51:13.136Z,100690.15
2023-05-06T17:56:16.908Z,100692.35
2023-05-06T18:01:20.401Z,100692.38
2023-05-06T18:06:24.501Z,100696.20
2023-05-06T18:11:27.912Z,100699.11
2023-05-06T18:16:31.904Z,100702.70
2023-05-06T18:21:36.236Z,100701.04
2023-05-06T18:26:45.470Z,100703.41
2023-05-06T18:31:49.585Z,100709.04
2023-05-06T18:36:53.074Z,100710.19
2023-05-06T18:41:56.479Z,100711.14
2023-05-06T18:47:00.109Z,100715.39
2023-05-06T18:52:03.841Z,100717.08
2023-05-06T18:57:07.280Z,100717.58
2023-05-06T19:02:10.985Z,100721.73
2023-05-06T19:07:16.141Z,100730.16
2023-05-06T19:12:19.854Z,100735.45
2023-05-06T19:17:23.469Z,100737.64
2023-05-06T19:22:27.074Z,100739.79
2023-05-06T19:27:30.801Z,100743.98
2023-05-06T19:32:34.367Z,100739.77
2023-05-06T19:37:38.724Z,100737.98
2023-05-06T19:42:42.974Z,100737.78
2023-05-06T19:47:46.349Z,100740.89
2023-05-06T19:52:50.731Z,100740.71
2023-05-06T19:57:58.766Z,100742.75
2023-05-06T20:03:03.466Z,100744.36
2023-05-06T20:08:11.568Z,100743.14
2023-05-06T20:13:15.057Z,100751.90
2023-05-06T20:18:18.439Z,100749.85
2023-05-06T20:23:21.956Z,100753.77
2023-05-06T20:28:26.454Z,100750.84
2023-05-06T20:33:30.115Z,100750.25
2023-05-06T20:38:33.933Z,100745.91
2023-05-06T20:43:37.560Z,100743.02
2023-05-06T20:48:41.578Z,100745.59
2023-05-06T20:53:46.522Z,100744.27
2023-05-06T20:58:50.144Z,100746.30
2023-05-06T21:03:53.816Z,100740.52
2023-05-06T21:08:58.299Z,100741.57
2023-05-06T21:14:01.613Z,100744.77
2023-05-06T21:19:05.125Z,100748.96
2023-05-06T21:24:08.862Z,100753.67
2023-05-06T21:29:12.264Z,100755.38
2023-05-06T21:34:16.081Z,100749.70
2023-05-06T21:39:19.495Z,100746.20
2023-05-06T21:44:23.009Z,100747.09
2023-05-06T21:49:26.627Z,100749.17
2023-05-06T21:54:31.886Z,100751.48
2023-05-06T21:59:36.545Z,100758.16
2023-05-06T22:04:39.949Z,100757.91
2023-05-06T22:09:44.324Z,100764.05
2023-05-06T22:14:47.695Z,100769.15
2023-05-06T22:19:52.025Z,100760.73
2023-05-06T22:24:56.050Z,100760.59
2023-05-06T22:30:00.147Z,100761.80
2023-05-06T22:35:04.474Z,100762.10
2023-05-06T22:40:09.843Z,100764.48
2023-05-06T22:45:13.721Z,100767.77
2023-05-06T22:50:17.826Z,100767.54
2023-05-06T22:55:21.336Z,100768.81
2023-05-06T23:00:25.268Z,100767.17
2023-05-06T23:05:28.884Z,100775.13
2023-05-06T23:10:32.298Z,100775.13
2023-05-06T23:15:36.655Z,100779.92
2023-05-06T23:20:39.941Z,100778.22
2023-05-06T23:25:43.557Z,100780.20
2023-05-06T23:30:47.105Z,100783.80
2023-05-06T23:35:50.693Z,100786.00
2023-05-06T23:40:54.740Z,100788.86
2023-05-06T23:45:58.177Z,100794.90
2023-05-06T23:51:01.660Z,100794.81
2023-05-06T23:56:06.027Z,100791.60
